createdAt,value
2019-01-04T00:00:03.126Z,1039.8
2019-01-04T00:15:03.086Z,1039.64
2019-01-04T00:20:02.417Z,1039.68
2019-01-04T00:25:02.748Z,1039.71
2019-01-04T00:30:03.222Z,1039.53
2019-01-04T00:35:02.663Z,1039.6
2019-01-04T00:40:03.150Z,1039.55
2019-01-04T00:45:02.569Z,1039.52
2019-01-04T00:50:02.914Z,1039.54
2019-01-04T00:55:03.429Z,1039.47
2019-01-04T01:05:02.394Z,1039.53
2019-01-04T01:10:02.857Z,1039.49
2019-01-04T01:20:02.803Z,1039.49
2019-01-04T01:25:03.140Z,1039.58
2019-01-04T01:30:02.554Z,1039.67
2019-01-04T01:40:02.423Z,1039.63
2019-01-04T01:45:02.769Z,1039.77
2019-01-04T01:50:03.213Z,1039.7
2019-01-04T01:55:02.654Z,1039.78
2019-01-04T02:00:03.080Z,1039.78
2019-01-04T02:05:02.489Z,1039.74
2019-01-04T02:10:02.928Z,1039.52
2019-01-04T02:15:03.303Z,1039.6
2019-01-04T02:20:02.630Z,1039.54
2019-01-04T02:25:03.036Z,1039.43
2019-01-04T02:30:02.373Z,1039.47
2019-01-04T02:35:02.794Z,1039.47
2019-01-04T02:40:03.235Z,1039.43
2019-01-04T02:45:02.569Z,1039.53
2019-01-04T02:50:03.046Z,1039.54
2019-01-04T02:55:02.484Z,1039.55
2019-01-04T03:00:02.897Z,1039.56
2019-01-04T03:05:03.316Z,1039.5
2019-01-04T03:10:02.730Z,1039.61
2019-01-04T03:15:03.177Z,1039.45
2019-01-04T03:20:02.512Z,1039.5
2019-01-04T03:25:02.836Z,1039.55
2019-01-04T03:30:03.213Z,1039.49
2019-01-04T03:35:02.589Z,1039.39
2019-01-04T03:40:03.080Z,1039.28
2019-01-04T03:45:02.459Z,1039.35
2019-01-04T03:50:02.887Z,1039.15
2019-01-04T03:55:03.364Z,1039.07
2019-01-04T04:00:02.844Z,1038.97
2019-01-04T04:05:03.202Z,1038.86
2019-01-04T04:10:02.724Z,1038.89
2019-01-04T04:15:03.091Z,1038.85
2019-01-04T04:20:02.475Z,1038.7
2019-01-04T04:25:02.858Z,1038.69
2019-01-04T04:30:03.216Z,1038.63
2019-01-04T04:35:02.569Z,1038.82
2019-01-04T04:40:03.018Z,1038.74
2019-01-04T04:45:02.455Z,1038.75
2019-01-04T04:50:02.899Z,1038.75
2019-01-04T04:55:03.381Z,1038.75
2019-01-04T05:00:02.840Z,1038.63
2019-01-04T05:05:03.202Z,1038.62
2019-01-04T05:10:02.602Z,1038.66
2019-01-04T05:15:02.959Z,1038.79
2019-01-04T05:20:02.366Z,1038.81
2019-01-04T05:25:02.858Z,1038.74
2019-01-04T05:30:03.276Z,1038.75
2019-01-04T05:35:02.678Z,1038.78
2019-01-04T05:40:03.129Z,1038.73
2019-01-04T05:45:02.546Z,1038.66
2019-01-04T05:55:02.636Z,1038.36
2019-01-04T06:00:03.073Z,1038.46
2019-01-04T06:05:02.491Z,1038.59
2019-01-04T06:10:02.909Z,1038.72
2019-01-04T06:15:03.260Z,1038.54
2019-01-04T06:20:02.659Z,1038.4
2019-01-04T06:25:03.018Z,1038.28
2019-01-04T06:30:02.426Z,1038.31
2019-01-04T06:35:02.849Z,1038.33
2019-01-04T06:40:03.319Z,1038.33
2019-01-04T06:45:02.723Z,1038.47
2019-01-04T06:50:03.122Z,1038.54
2019-01-04T06:55:02.494Z,1038.6
2019-01-04T07:00:02.868Z,1038.55
2019-01-04T07:05:03.290Z,1038.55
2019-01-04T07:10:02.697Z,1038.72
2019-01-04T07:15:03.049Z,1038.75
2019-01-04T07:20:02.461Z,1038.65
2019-01-04T07:25:02.802Z,1038.71
2019-01-04T07:30:03.138Z,1038.72
2019-01-04T07:35:02.637Z,1038.78
2019-01-04T07:40:03.338Z,1038.82
2019-01-04T07:45:02.731Z,1038.79
2019-01-04T07:50:03.074Z,1038.88
2019-01-04T07:55:02.413Z,1038.87
2019-01-04T08:00:02.830Z,1038.87
2019-01-04T08:05:03.173Z,1038.87
2019-01-04T08:10:02.729Z,1038.86
2019-01-04T08:15:03.046Z,1038.95
2019-01-04T08:20:02.448Z,1038.92
2019-01-04T08:25:02.793Z,1038.74
2019-01-04T08:30:03.332Z,1038.74
2019-01-04T08:35:02.769Z,1038.75
2019-01-04T08:40:03.209Z,1038.76
2019-01-04T08:45:02.612Z,1038.74
2019-01-04T08:50:02.980Z,1038.71
2019-01-04T08:55:02.384Z,1038.64
2019-01-04T09:00:02.763Z,1038.73
2019-01-04T09:05:03.170Z,1038.79
2019-01-04T09:10:02.610Z,1038.75
2019-01-04T09:15:03.028Z,1038.65
2019-01-04T09:20:02.449Z,1038.72
2019-01-04T09:25:02.887Z,1038.51
2019-01-04T09:30:03.242Z,1038.45
2019-01-04T09:35:02.666Z,1038.34
2019-01-04T09:40:03.100Z,1038.09
2019-01-04T09:45:02.501Z,1038.09
2019-01-04T09:50:02.873Z,1038.19
2019-01-04T09:55:03.307Z,1038.19
2019-01-04T10:00:02.677Z,1038.22
2019-01-04T10:05:03.133Z,1038.18
2019-01-04T10:10:02.574Z,1038.08
2019-01-04T10:15:02.918Z,1038.02
2019-01-04T10:20:03.373Z,1037.93
2019-01-04T10:25:02.775Z,1037.75
2019-01-04T10:30:03.125Z,1037.71
2019-01-04T10:35:02.561Z,1037.61
2019-01-04T10:40:02.981Z,1037.55
2019-01-04T10:45:02.306Z,1037.4
2019-01-04T10:50:02.645Z,1037.42
2019-01-04T10:55:02.995Z,1037.22
2019-01-04T11:05:03.080Z,1037.18
2019-01-04T11:15:02.916Z,1037.1
2019-01-04T11:20:03.362Z,1037.08
2019-01-04T11:25:02.789Z,1037.1
2019-01-04T11:30:03.122Z,1036.89
2019-01-04T11:35:02.547Z,1036.89
2019-01-04T11:40:02.978Z,1037.0
2019-01-04T11:45:02.305Z,1037.06
2019-01-04T11:55:03.211Z,1036.83
2019-01-04T12:00:02.633Z,1036.68
2019-01-04T12:05:02.984Z,1036.64
2019-01-04T12:10:02.464Z,1036.53
2019-01-04T12:15:02.885Z,1036.35
2019-01-04T12:20:03.286Z,1036.46
2019-01-04T12:25:02.671Z,1036.66
2019-01-04T12:30:03.117Z,1036.57
2019-01-04T12:35:02.614Z,1036.45
2019-01-04T12:40:03.081Z,1036.43
2019-01-04T12:45:02.408Z,1036.32
2019-01-04T12:50:02.848Z,1036.36
2019-01-04T12:55:03.283Z,1036.47
2019-01-04T13:00:02.698Z,1036.5
2019-01-04T13:05:03.055Z,1036.18
2019-01-04T13:10:02.458Z,1036.0
2019-01-04T13:15:02.835Z,1035.96
2019-01-04T13:20:03.252Z,1035.86
2019-01-04T13:25:02.708Z,1035.87
2019-01-04T13:30:03.212Z,1035.8
2019-01-04T13:35:02.641Z,1035.81
2019-01-04T13:40:03.081Z,1035.77
2019-01-04T13:45:02.418Z,1035.75
2019-01-04T13:50:02.742Z,1035.78
2019-01-04T13:55:03.095Z,1035.68
2019-01-04T14:00:02.483Z,1035.54
2019-01-04T14:05:02.841Z,1035.6
2019-01-04T14:10:03.356Z,1035.5
2019-01-04T14:15:02.738Z,1035.53
2019-01-04T14:20:03.134Z,1035.55
2019-01-04T14:25:02.562Z,1035.54
2019-01-04T14:30:02.894Z,1035.49
2019-01-04T14:35:03.337Z,1035.53
2019-01-04T14:40:02.755Z,1035.47
2019-01-04T14:45:03.215Z,1035.45
2019-01-04T14:50:02.611Z,1035.54
2019-01-04T14:55:02.953Z,1035.61
2019-01-04T15:00:03.405Z,1035.63
2019-01-04T15:05:02.852Z,1035.54
2019-01-04T15:10:03.261Z,1035.6
2019-01-04T15:15:02.731Z,1035.56
2019-01-04T15:20:03.137Z,1035.66
2019-01-04T15:25:02.539Z,1035.7
2019-01-04T15:30:02.885Z,1035.73
2019-01-04T15:35:03.348Z,1035.51
2019-01-04T15:40:02.745Z,1035.54
2019-01-04T15:45:03.115Z,1035.66
2019-01-04T15:50:02.549Z,1035.45
2019-01-04T15:55:03.226Z,1035.56
2019-01-04T16:00:02.580Z,1035.61
2019-01-04T16:05:03.031Z,1035.45
2019-01-04T16:10:02.443Z,1035.41
2019-01-04T16:15:02.798Z,1035.32
2019-01-04T16:20:03.226Z,1035.46
2019-01-04T16:25:02.729Z,1035.45
2019-01-04T16:30:03.114Z,1035.4
2019-01-04T16:35:02.442Z,1035.4
2019-01-04T16:40:02.842Z,1035.37
2019-01-04T16:45:03.269Z,1035.21
2019-01-04T16:50:02.714Z,1035.14
2019-01-04T16:55:03.149Z,1034.97
2019-01-04T17:00:02.576Z,1034.95
2019-01-04T17:05:02.921Z,1034.93
2019-01-04T17:10:03.476Z,1034.83
2019-01-04T17:15:02.795Z,1034.77
2019-01-04T17:20:03.269Z,1034.67
2019-01-04T17:25:02.649Z,1034.69
2019-01-04T17:30:03.111Z,1034.73
2019-01-04T17:35:02.500Z,1034.79
2019-01-04T17:40:02.977Z,1034.88
2019-01-04T17:45:02.345Z,1034.81
2019-01-04T17:50:03.428Z,1034.64
2019-01-04T17:55:02.855Z,1034.65
2019-01-04T18:00:03.320Z,1034.52
2019-01-04T18:05:02.696Z,1034.52
2019-01-04T18:10:03.160Z,1034.65
2019-01-04T18:15:02.586Z,1034.5
2019-01-04T18:20:03.016Z,1034.5
2019-01-04T18:25:02.437Z,1034.45
2019-01-04T18:30:02.784Z,1034.4
2019-01-04T18:35:03.247Z,1034.49
2019-01-04T18:40:02.764Z,1034.61
2019-01-04T18:45:03.189Z,1034.6
2019-01-04T18:50:03.511Z,1034.61
2019-01-04T18:55:02.946Z,1034.63
2019-01-04T19:00:03.416Z,1034.64
2019-01-04T19:05:02.788Z,1034.59
2019-01-04T19:10:03.245Z,1034.65
2019-01-04T19:15:02.587Z,1034.6
2019-01-04T19:20:03.007Z,1034.56
2019-01-04T19:25:02.459Z,1034.62
2019-01-04T19:30:02.870Z,1034.62
2019-01-04T19:35:03.244Z,1034.6
2019-01-04T19:40:02.763Z,1034.58
2019-01-04T19:45:03.180Z,1034.6
2019-01-04T19:50:02.632Z,1034.64
2019-01-04T19:55:03.038Z,1034.59
2019-01-04T20:00:02.449Z,1034.56
2019-01-04T20:05:02.800Z,1034.49
2019-01-04T20:15:02.667Z,1034.45
2019-01-04T20:20:03.147Z,1034.36
2019-01-04T20:25:02.517Z,1034.34
2019-01-04T20:30:02.862Z,1034.29
2019-01-04T20:35:03.198Z,1034.38
2019-01-04T20:40:02.610Z,1034.39
2019-01-04T20:50:02.383Z,1034.36
2019-01-04T20:55:02.736Z,1034.36
2019-01-04T21:00:03.419Z,1034.44
2019-01-04T21:05:02.786Z,1034.33
2019-01-04T21:10:08.238Z,1034.35
2019-01-04T21:15:02.658Z,1034.27
2019-01-04T21:20:03.100Z,1034.3
2019-01-04T21:25:02.507Z,1034.36
2019-01-04T21:30:02.914Z,1034.25
2019-01-04T21:40:02.858Z,1034.2
2019-01-04T21:45:03.281Z,1034.18
2019-01-04T21:50:02.678Z,1034.12
2019-01-04T21:55:03.038Z,1034.03
2019-01-04T22:00:02.375Z,1033.95
2019-01-04T22:05:02.790Z,1033.98
2019-01-04T22:10:03.227Z,1034.01
2019-01-04T22:15:02.695Z,1033.95
2019-01-04T22:20:03.026Z,1033.95
2019-01-04T22:25:02.453Z,1033.85
2019-01-04T22:30:02.848Z,1033.76
2019-01-04T22:40:02.726Z,1033.58
2019-01-04T22:45:03.197Z,1033.53
2019-01-04T22:50:02.569Z,1033.52
2019-01-04T22:55:03.010Z,1033.52
2019-01-04T23:00:02.350Z,1033.45
2019-01-04T23:05:02.771Z,1033.42
2019-01-04T23:10:03.263Z,1033.38
2019-01-04T23:15:02.603Z,1033.27
2019-01-04T23:20:02.978Z,1033.3
2019-01-04T23:25:02.418Z,1033.13
2019-01-04T23:30:02.844Z,1033.12
2019-01-04T23:35:03.230Z,1033.17
2019-01-04T23:45:03.376Z,1033.04
2019-01-04T23:50:02.768Z,1033.01
2019-01-04T23:55:03.130Z,1032.98
